Time;durP1;ratioP1;P1;durP2;ratioP2;P2;SDS_P1;SDS_P2;PMS_P1;PMS_P2;Temp;Humidity;BMP_temperature;BMP_pressure;BME280_temperature;BME280_humidity;BME280_pressure;Samples;Min_cycle;Max_cycle;Signal;HPM_P1;HPM_P2
2022/08/03 00:01:41;;;;;;;3.25;2.75;;;;;;;;;;5012424;28;20037;-70
2022/08/03 00:04:08;;;;;;;3.15;2.50;;;;;;;;;;5013495;28;20444;-70
2022/08/03 00:06:34;;;;;;;3.55;2.80;;;;;;;;;;5012822;28;20451;-69
2022/08/03 00:09:00;;;;;;;2.92;2.65;;;;;;;;;;5015159;28;20219;-70
2022/08/03 00:11:27;;;;;;;3.88;2.50;;;;;;;;;;5014258;28;20030;-69
2022/08/03 00:13:53;;;;;;;3.03;2.80;;;;;;;;;;5012029;28;20049;-71
2022/08/03 00:16:19;;;;;;;3.67;2.72;;;;;;;;;;5009940;28;20346;-69
2022/08/03 00:18:45;;;;;;;4.07;3.00;;;;;;;;;;5010941;28;20038;-69
2022/08/03 00:21:12;;;;;;;3.95;2.55;;;;;;;;;;5011586;28;20432;-70
2022/08/03 00:23:38;;;;;;;8.10;3.17;;;;;;;;;;5006087;28;20232;-69
2022/08/03 00:26:04;;;;;;;9.00;3.10;;;;;;;;;;5011453;28;20478;-69
2022/08/03 00:28:31;;;;;;;3.22;2.40;;;;;;;;;;5006476;28;20061;-69
2022/08/03 00:30:57;;;;;;;3.58;2.30;;;;;;;;;;5008920;28;20485;-69
2022/08/03 00:33:23;;;;;;;2.33;2.13;;;;;;;;;;5014313;28;20248;-69
2022/08/03 00:35:49;;;;;;;5.15;2.72;;;;;;;;;;5012041;28;20373;-69
2022/08/03 00:38:15;;;;;;;3.53;2.83;;;;;;;;;;5012791;28;20176;-71
2022/08/03 00:40:41;;;;;;;3.97;2.92;;;;;;;;;;5013344;28;20022;-69
2022/08/03 00:43:09;;;;;;;2.70;2.50;;;;;;;;;;5016125;28;20028;-69
2022/08/03 00:45:36;;;;;;;3.00;2.53;;;;;;;;;;5014619;28;20079;-70
2022/08/03 00:48:03;;;;;;;2.60;2.40;;;;;;;;;;5008749;28;20026;-70
2022/08/03 00:50:30;;;;;;;2.58;2.38;;;;;;;;;;5014839;28;20049;-70
2022/08/03 00:52:57;;;;;;;4.22;2.90;;;;;;;;;;5015492;28;20043;-70
2022/08/03 00:55:24;;;;;;;9.05;2.60;;;;;;;;;;5012244;28;20462;-69
2022/08/03 00:57:50;;;;;;;2.50;2.30;;;;;;;;;;5012950;28;20033;-70
2022/08/03 01:00:17;;;;;;;3.40;2.47;;;;;;;;;;5012280;28;20022;-69
2022/08/03 01:02:44;;;;;;;3.70;2.35;;;;;;;;;;5007186;28;20025;-69
2022/08/03 01:05:10;;;;;;;3.15;2.40;;;;;;;;;;5012523;28;20014;-69
2022/08/03 01:07:42;;;;;;;2.65;2.33;;;;;;;;;;5007790;28;20052;-69
2022/08/03 01:10:11;;;;;;;2.28;2.10;;;;;;;;;;5016554;28;20025;-70
2022/08/03 01:12:38;;;;;;;4.68;3.22;;;;;;;;;;5011971;28;20025;-69
2022/08/03 01:15:05;;;;;;;3.70;2.55;;;;;;;;;;5008189;28;20915;-69
2022/08/03 01:17:38;;;;;;;2.83;2.20;;;;;;;;;;5009584;28;20033;-68
2022/08/03 01:20:08;;;;;;;3.78;2.80;;;;;;;;;;5010473;28;20106;-70
2022/08/03 01:22:37;;;;;;;3.33;2.78;;;;;;;;;;5007336;28;20033;-69
2022/08/03 01:25:03;;;;;;;3.13;2.25;;;;;;;;;;5013451;28;20033;-70
2022/08/03 01:27:35;;;;;;;2.50;2.13;;;;;;;;;;5008714;28;20193;-69
2022/08/03 01:30:01;;;;;;;3.20;2.28;;;;;;;;;;5014667;28;20025;-69
2022/08/03 01:32:33;;;;;;;2.92;2.58;;;;;;;;;;5013478;28;20013;-69
2022/08/03 01:35:19;;;;;;;3.88;2.50;;;;;;;;;;5014902;28;20028;-70
2022/08/03 01:38:00;;;;;;;4.18;2.60;;;;;;;;;;5013674;28;20456;-69
2022/08/03 01:40:28;;;;;;;3.33;2.58;;;;;;;;;;5011879;28;20211;-69
2022/08/03 01:42:56;;;;;;;3.58;2.63;;;;;;;;;;5012167;28;20014;-70
2022/08/03 01:45:23;;;;;;;3.03;2.40;;;;;;;;;;5015574;28;20034;-69
2022/08/03 01:47:50;;;;;;;3.70;2.60;;;;;;;;;;5013669;28;20397;-70
2022/08/03 01:50:16;;;;;;;2.58;2.38;;;;;;;;;;5012002;28;20030;-69
2022/08/03 01:52:43;;;;;;;3.42;2.40;;;;;;;;;;5013335;28;20328;-72
2022/08/03 01:55:10;;;;;;;3.30;2.38;;;;;;;;;;5016181;28;20044;-72
2022/08/03 01:57:38;;;;;;;3.03;2.75;;;;;;;;;;5014104;28;20037;-71
2022/08/03 02:00:05;;;;;;;2.42;2.22;;;;;;;;;;5011991;28;20061;-72
2022/08/03 02:02:32;;;;;;;2.72;2.53;;;;;;;;;;5011777;28;20030;-69
2022/08/03 02:05:00;;;;;;;4.43;2.40;;;;;;;;;;5009883;28;20018;-71
2022/08/03 02:07:26;;;;;;;3.75;2.47;;;;;;;;;;5012783;28;20017;-71
2022/08/03 02:09:53;;;;;;;3.22;2.40;;;;;;;;;;5004565;28;20101;-72
2022/08/03 02:12:20;;;;;;;3.20;2.38;;;;;;;;;;5006953;28;20026;-72
2022/08/03 02:14:48;;;;;;;2.47;2.13;;;;;;;;;;5009830;28;20462;-70
2022/08/03 02:17:15;;;;;;;2.78;2.35;;;;;;;;;;5009477;28;20042;-70
2022/08/03 02:19:42;;;;;;;2.78;2.50;;;;;;;;;;5011500;28;20030;-70
2022/08/03 02:22:10;;;;;;;3.65;2.55;;;;;;;;;;5008953;28;20496;-72
2022/08/03 02:24:37;;;;;;;3.17;2.60;;;;;;;;;;5013499;28;20029;-71
2022/08/03 02:27:05;;;;;;;2.70;2.50;;;;;;;;;;5013319;28;20176;-71
2022/08/03 02:29:33;;;;;;;2.40;2.20;;;;;;;;;;5013975;28;20033;-70
2022/08/03 02:32:00;;;;;;;3.15;2.85;;;;;;;;;;5013366;28;20026;-70
2022/08/03 02:34:29;;;;;;;3.88;2.80;;;;;;;;;;5010044;28;20382;-70
2022/08/03 02:36:59;;;;;;;3.00;2.55;;;;;;;;;;5013146;28;20021;-72
2022/08/03 02:39:25;;;;;;;3.00;2.70;;;;;;;;;;5009444;28;20018;-70
2022/08/03 02:41:54;;;;;;;3.03;2.42;;;;;;;;;;4997686;28;20061;-71
2022/08/03 02:44:24;;;;;;;4.00;2.55;;;;;;;;;;5006239;28;20500;-70
2022/08/03 02:46:53;;;;;;;2.97;2.55;;;;;;;;;;5007486;28;20037;-71
2022/08/03 02:49:20;;;;;;;2.70;2.28;;;;;;;;;;5007227;28;20092;-70
2022/08/03 02:51:47;;;;;;;3.58;2.42;;;;;;;;;;5006023;28;20022;-70
2022/08/03 02:54:15;;;;;;;3.05;2.40;;;;;;;;;;5005438;28;20049;-70
2022/08/03 02:56:42;;;;;;;2.83;2.53;;;;;;;;;;4994569;28;20021;-70
2022/08/03 02:59:09;;;;;;;2.33;2.13;;;;;;;;;;5011095;28;20026;-70
2022/08/03 03:01:35;;;;;;;6.03;2.88;;;;;;;;;;5001483;28;20026;-70
2022/08/03 03:04:01;;;;;;;7.43;2.50;;;;;;;;;;5003143;28;20034;-70
2022/08/03 03:06:28;;;;;;;4.15;2.55;;;;;;;;;;5005434;28;20018;-71
2022/08/03 03:08:56;;;;;;;4.60;2.65;;;;;;;;;;5007820;28;20100;-70
2022/08/03 03:11:23;;;;;;;2.85;2.55;;;;;;;;;;5007687;28;20030;-71
2022/08/03 03:13:50;;;;;;;2.33;2.13;;;;;;;;;;5003798;28;20466;-71
2022/08/03 03:16:17;;;;;;;3.03;2.30;;;;;;;;;;5009352;28;20157;-70
2022/08/03 03:18:44;;;;;;;2.63;2.42;;;;;;;;;;5006308;28;20041;-71
2022/08/03 03:21:11;;;;;;;4.15;2.60;;;;;;;;;;5003357;28;20763;-70
2022/08/03 03:23:39;;;;;;;3.40;2.72;;;;;;;;;;5003542;28;20032;-71
2022/08/03 03:26:05;;;;;;;2.70;2.45;;;;;;;;;;5005197;28;20490;-70
2022/08/03 03:28:32;;;;;;;2.50;2.30;;;;;;;;;;5005522;28;20481;-70
2022/08/03 03:30:59;;;;;;;2.88;2.55;;;;;;;;;;5006059;28;20613;-70
2022/08/03 03:33:25;;;;;;;2.92;2.50;;;;;;;;;;4998728;28;20253;-70
2022/08/03 03:35:51;;;;;;;5.60;2.45;;;;;;;;;;5002819;28;20036;-71
2022/08/03 03:38:18;;;;;;;2.63;2.38;;;;;;;;;;5008504;28;20605;-71
2022/08/03 03:40:44;;;;;;;2.50;2.30;;;;;;;;;;5005791;28;20026;-71
2022/08/03 03:43:11;;;;;;;3.38;2.63;;;;;;;;;;5005696;28;20030;-72
2022/08/03 03:45:40;;;;;;;3.08;2.60;;;;;;;;;;5005397;28;20449;-71
2022/08/03 03:48:07;;;;;;;2.55;2.35;;;;;;;;;;5005610;28;21373;-71
2022/08/03 03:50:34;;;;;;;3.45;2.40;;;;;;;;;;5007976;28;20036;-70
2022/08/03 03:53:04;;;;;;;5.05;2.30;;;;;;;;;;5008081;28;20029;-69
2022/08/03 03:55:30;;;;;;;2.60;2.40;;;;;;;;;;5004026;28;20030;-70
2022/08/03 03:57:56;;;;;;;2.50;2.30;;;;;;;;;;5007294;28;20042;-70
2022/08/03 04:00:22;;;;;;;3.00;2.65;;;;;;;;;;5002920;28;20025;-71
2022/08/03 04:02:49;;;;;;;2.50;2.30;;;;;;;;;;5000365;28;20492;-70
2022/08/03 04:11:08;;;;;;;4.70;2.42;;;;;;;;;;5000232;28;20041;-70
2022/08/03 04:13:39;;;;;;;3.15;2.60;;;;;;;;;;5001427;28;20264;-69
2022/08/03 04:16:06;;;;;;;2.60;2.40;;;;;;;;;;5001711;28;20037;-70
2022/08/03 04:18:33;;;;;;;3.67;2.35;;;;;;;;;;5005281;28;20044;-69
2022/08/03 04:21:03;;;;;;;2.60;2.33;;;;;;;;;;4996979;28;20382;-69
2022/08/03 04:23:31;;;;;;;2.45;2.25;;;;;;;;;;4999046;28;20318;-70
2022/08/03 04:25:59;;;;;;;2.40;2.20;;;;;;;;;;5002010;28;20026;-70
2022/08/03 04:28:25;;;;;;;2.45;2.25;;;;;;;;;;4998646;28;20041;-71
2022/08/03 04:30:52;;;;;;;3.70;2.25;;;;;;;;;;5001281;28;20087;-70
2022/08/03 04:33:19;;;;;;;4.75;2.50;;;;;;;;;;4996589;28;20470;-72
2022/08/03 04:35:46;;;;;;;2.63;2.42;;;;;;;;;;5002634;28;20035;-70
2022/08/03 04:38:13;;;;;;;5.75;2.88;;;;;;;;;;4991564;28;20686;-70
2022/08/03 04:40:41;;;;;;;3.88;2.47;;;;;;;;;;4992699;28;20494;-70
2022/08/03 04:43:08;;;;;;;2.75;2.55;;;;;;;;;;4994041;28;20497;-70
2022/08/03 04:45:35;;;;;;;2.65;2.45;;;;;;;;;;5003102;28;20113;-70
2022/08/03 04:48:01;;;;;;;2.78;2.50;;;;;;;;;;4999345;28;20081;-71
2022/08/03 04:50:28;;;;;;;3.38;2.63;;;;;;;;;;5003090;28;20593;-70
2022/08/03 04:52:54;;;;;;;2.90;2.70;;;;;;;;;;5003691;28;20116;-71
2022/08/03 04:55:31;;;;;;;3.13;2.60;;;;;;;;;;5000438;28;20018;-70
2022/08/03 04:57:57;;;;;;;2.65;2.45;;;;;;;;;;4996865;28;20525;-71
2022/08/03 05:00:24;;;;;;;4.38;2.50;;;;;;;;;;5001522;28;20080;-71
2022/08/03 05:02:50;;;;;;;5.22;2.88;;;;;;;;;;5003171;28;20032;-71
2022/08/03 05:05:17;;;;;;;3.75;2.58;;;;;;;;;;5004716;28;20028;-70
2022/08/03 05:07:43;;;;;;;3.38;2.42;;;;;;;;;;5002157;28;20083;-72
2022/08/03 05:10:10;;;;;;;2.88;2.50;;;;;;;;;;4996585;28;20017;-71
2022/08/03 05:12:36;;;;;;;4.13;2.40;;;;;;;;;;4998747;28;20117;-72
2022/08/03 05:15:03;;;;;;;3.63;2.35;;;;;;;;;;5002661;28;20069;-72
2022/08/03 05:17:29;;;;;;;5.03;2.85;;;;;;;;;;5002804;28;20043;-72
2022/08/03 05:19:56;;;;;;;3.28;2.70;;;;;;;;;;5000915;28;20579;-71
2022/08/03 05:22:22;;;;;;;39.83;8.20;;;;;;;;;;5003352;28;20072;-71
2022/08/03 05:24:48;;;;;;;6.45;3.13;;;;;;;;;;5001785;28;20025;-72
2022/08/03 05:27:20;;;;;;;2.60;2.40;;;;;;;;;;5004092;28;20029;-72
2022/08/03 05:29:47;;;;;;;3.85;2.50;;;;;;;;;;5004601;28;20033;-71
2022/08/03 05:32:14;;;;;;;5.10;2.53;;;;;;;;;;4998326;28;20462;-72
2022/08/03 05:34:40;;;;;;;6.72;3.03;;;;;;;;;;4998542;28;20038;-72
2022/08/03 05:37:06;;;;;;;8.02;2.90;;;;;;;;;;5006206;28;20025;-72
2022/08/03 05:39:33;;;;;;;5.57;2.83;;;;;;;;;;5006379;28;20044;-72
2022/08/03 05:41:59;;;;;;;3.47;2.92;;;;;;;;;;5011170;28;20029;-72
2022/08/03 05:44:26;;;;;;;4.97;2.70;;;;;;;;;;5010333;28;20025;-72
2022/08/03 05:46:52;;;;;;;4.30;2.92;;;;;;;;;;5004070;28;20029;-72
2022/08/03 05:49:19;;;;;;;2.72;2.28;;;;;;;;;;5006002;28;20028;-72
2022/08/03 05:51:45;;;;;;;4.07;2.55;;;;;;;;;;5008129;28;20033;-73
2022/08/03 05:54:11;;;;;;;6.05;2.65;;;;;;;;;;5008786;28;20026;-71
2022/08/03 05:56:39;;;;;;;6.35;3.20;;;;;;;;;;5009648;28;20030;-72
2022/08/03 05:59:06;;;;;;;4.57;3.05;;;;;;;;;;5011816;28;20536;-72
2022/08/03 06:01:32;;;;;;;3.53;2.78;;;;;;;;;;5007705;28;20227;-72
2022/08/03 06:03:59;;;;;;;6.57;3.00;;;;;;;;;;5010561;28;20037;-72
2022/08/03 06:06:25;;;;;;;5.00;2.90;;;;;;;;;;5003881;28;20026;-72
2022/08/03 06:08:51;;;;;;;3.67;2.60;;;;;;;;;;5000924;28;20022;-72
2022/08/03 06:11:17;;;;;;;4.50;3.03;;;;;;;;;;5008075;28;20505;-72
2022/08/03 06:13:44;;;;;;;3.67;2.90;;;;;;;;;;5002447;28;20033;-73
2022/08/03 06:16:10;;;;;;;7.07;3.10;;;;;;;;;;5006741;28;20542;-72
2022/08/03 06:18:36;;;;;;;4.35;2.90;;;;;;;;;;5000772;28;20561;-72
2022/08/03 06:21:02;;;;;;;6.38;3.15;;;;;;;;;;4997574;28;20789;-73
2022/08/03 06:23:29;;;;;;;5.60;3.13;;;;;;;;;;5002085;28;20690;-72
2022/08/03 06:25:55;;;;;;;4.00;2.80;;;;;;;;;;4998549;28;20410;-71
2022/08/03 06:28:21;;;;;;;10.93;3.95;;;;;;;;;;5012814;28;20041;-72
2022/08/03 06:30:48;;;;;;;7.18;4.03;;;;;;;;;;5005555;28;20029;-72
2022/08/03 06:33:14;;;;;;;7.25;3.78;;;;;;;;;;5008676;28;20105;-72
2022/08/03 06:35:40;;;;;;;6.03;3.10;;;;;;;;;;5009210;28;20054;-72
2022/08/03 06:38:07;;;;;;;4.05;3.08;;;;;;;;;;5006871;28;20037;-71
2022/08/03 06:40:38;;;;;;;8.57;3.38;;;;;;;;;;5012720;28;20459;-71
2022/08/03 06:43:05;;;;;;;9.90;3.38;;;;;;;;;;5011047;28;20029;-71
2022/08/03 06:45:32;;;;;;;3.42;2.88;;;;;;;;;;5013845;28;20032;-71
2022/08/03 06:48:01;;;;;;;4.25;2.97;;;;;;;;;;5012220;28;20025;-71
2022/08/03 06:50:27;;;;;;;4.88;3.00;;;;;;;;;;5013486;28;20014;-71
2022/08/03 06:52:53;;;;;;;5.15;3.70;;;;;;;;;;5012603;28;20033;-71
2022/08/03 06:55:19;;;;;;;5.28;3.80;;;;;;;;;;5007057;28;20517;-72
2022/08/03 06:57:45;;;;;;;6.00;3.85;;;;;;;;;;5016139;28;20857;-71
2022/08/03 07:00:12;;;;;;;4.22;3.30;;;;;;;;;;5010983;28;20079;-70
2022/08/03 07:02:39;;;;;;;3.78;3.00;;;;;;;;;;5017417;28;20303;-71
2022/08/03 07:05:05;;;;;;;2.97;2.67;;;;;;;;;;5016138;28;20029;-71
2022/08/03 07:07:31;;;;;;;3.88;2.80;;;;;;;;;;5015844;28;20018;-71
2022/08/03 07:09:58;;;;;;;3.50;3.20;;;;;;;;;;5011455;28;20637;-71
2022/08/03 07:12:24;;;;;;;4.78;3.22;;;;;;;;;;5016182;28;20640;-71
2022/08/03 07:14:51;;;;;;;5.07;2.97;;;;;;;;;;5009893;28;20018;-71
2022/08/03 07:17:17;;;;;;;3.50;2.80;;;;;;;;;;5008888;28;20030;-71
2022/08/03 07:19:43;;;;;;;5.50;3.60;;;;;;;;;;5010913;28;20038;-71
2022/08/03 07:22:10;;;;;;;3.83;2.67;;;;;;;;;;5013813;28;20029;-71
2022/08/03 07:24:36;;;;;;;3.80;2.83;;;;;;;;;;5007808;28;20112;-72
2022/08/03 07:27:03;;;;;;;5.70;2.90;;;;;;;;;;5005557;28;20049;-72
2022/08/03 07:29:29;;;;;;;2.80;2.60;;;;;;;;;;5010406;28;20040;-72
2022/08/03 07:31:55;;;;;;;3.08;2.78;;;;;;;;;;5009188;28;20377;-72
2022/08/03 07:34:21;;;;;;;4.75;3.15;;;;;;;;;;5012372;28;20040;-73
2022/08/03 07:36:47;;;;;;;3.47;3.13;;;;;;;;;;5009131;28;20096;-73
2022/08/03 07:39:14;;;;;;;3.95;2.80;;;;;;;;;;5006735;28;20088;-72
2022/08/03 07:41:40;;;;;;;3.15;2.83;;;;;;;;;;5011569;28;20045;-72
2022/08/03 07:44:06;;;;;;;6.18;3.33;;;;;;;;;;5013054;28;20025;-72
2022/08/03 07:46:32;;;;;;;4.72;3.10;;;;;;;;;;5010870;28;20643;-72
2022/08/03 07:48:58;;;;;;;3.40;3.10;;;;;;;;;;5007744;28;20397;-72
2022/08/03 07:51:24;;;;;;;3.50;2.85;;;;;;;;;;5012180;28;20156;-72
2022/08/03 07:53:51;;;;;;;3.00;2.47;;;;;;;;;;5011396;28;20478;-72
2022/08/03 07:56:18;;;;;;;2.83;2.63;;;;;;;;;;5007786;28;20634;-71
2022/08/03 07:58:44;;;;;;;2.92;2.63;;;;;;;;;;5011433;28;20030;-72
2022/08/03 08:01:10;;;;;;;3.53;2.65;;;;;;;;;;5015149;28;20017;-71
2022/08/03 08:03:37;;;;;;;2.63;2.42;;;;;;;;;;5009391;28;20029;-72
2022/08/03 08:06:03;;;;;;;4.10;2.75;;;;;;;;;;5010851;28;20402;-71
2022/08/03 08:08:30;;;;;;;5.03;2.90;;;;;;;;;;5011556;28;20034;-72
2022/08/03 08:10:56;;;;;;;3.75;2.65;;;;;;;;;;5002753;28;20438;-72
2022/08/03 08:13:22;;;;;;;4.78;3.00;;;;;;;;;;5010254;28;20022;-72
2022/08/03 08:15:48;;;;;;;3.45;2.75;;;;;;;;;;5009871;28;20506;-72
2022/08/03 08:18:15;;;;;;;4.95;2.97;;;;;;;;;;5000319;28;21330;-72
2022/08/03 08:20:41;;;;;;;3.40;2.55;;;;;;;;;;5004304;28;20062;-71
2022/08/03 08:23:08;;;;;;;3.92;2.78;;;;;;;;;;5004814;28;20882;-72
2022/08/03 08:25:34;;;;;;;2.97;2.70;;;;;;;;;;5003818;28;20038;-71
2022/08/03 08:28:02;;;;;;;3.45;2.90;;;;;;;;;;5006675;28;20397;-71
2022/08/03 08:30:28;;;;;;;2.90;2.60;;;;;;;;;;5006577;28;20028;-71
2022/08/03 08:32:56;;;;;;;3.15;2.83;;;;;;;;;;5004043;28;20121;-71
2022/08/03 08:35:22;;;;;;;4.63;2.67;;;;;;;;;;5005201;28;20405;-72
2022/08/03 08:37:48;;;;;;;4.57;2.60;;;;;;;;;;5003420;28;20034;-72
2022/08/03 08:40:15;;;;;;;5.03;2.95;;;;;;;;;;5005860;28;20109;-72
2022/08/03 08:42:42;;;;;;;3.85;2.80;;;;;;;;;;5010003;28;20525;-72
2022/08/03 08:45:08;;;;;;;3.63;2.53;;;;;;;;;;5007918;28;20026;-71
2022/08/03 08:47:39;;;;;;;3.20;2.90;;;;;;;;;;5009721;28;20028;-72
2022/08/03 08:50:07;;;;;;;3.58;3.10;;;;;;;;;;5010862;28;20033;-72
2022/08/03 08:52:33;;;;;;;2.72;2.50;;;;;;;;;;5006344;28;20048;-72
2022/08/03 08:55:02;;;;;;;3.88;3.08;;;;;;;;;;5010375;28;20036;-72
2022/08/03 08:57:47;;;;;;;3.42;2.72;;;;;;;;;;5006105;28;20032;-71
2022/08/03 09:00:14;;;;;;;3.58;2.80;;;;;;;;;;5008457;28;20014;-71
2022/08/03 09:02:41;;;;;;;3.00;2.80;;;;;;;;;;5005237;28;20054;-71
2022/08/03 09:05:11;;;;;;;2.95;2.65;;;;;;;;;;5009028;28;20022;-71
2022/08/03 09:07:38;;;;;;;4.37;2.90;;;;;;;;;;5007437;28;20401;-72
2022/08/03 09:10:04;;;;;;;2.65;2.42;;;;;;;;;;5008963;28;20266;-71
2022/08/03 09:12:31;;;;;;;5.63;2.95;;;;;;;;;;5014933;28;20024;-72
2022/08/03 09:14:57;;;;;;;4.20;2.92;;;;;;;;;;5006111;28;20022;-71
2022/08/03 09:17:23;;;;;;;3.03;2.83;;;;;;;;;;5008534;28;20038;-72
2022/08/03 09:20:08;;;;;;;3.13;2.83;;;;;;;;;;5012785;28;20038;-72
2022/08/03 09:22:34;;;;;;;3.83;2.83;;;;;;;;;;4999608;28;20092;-71
2022/08/03 09:25:02;;;;;;;2.70;2.50;;;;;;;;;;5004517;28;20028;-73
2022/08/03 09:27:29;;;;;;;3.38;2.92;;;;;;;;;;5003736;28;20046;-73
2022/08/03 09:29:55;;;;;;;8.40;3.53;;;;;;;;;;5006148;28;20024;-73
2022/08/03 09:32:22;;;;;;;3.97;2.72;;;;;;;;;;5009446;28;20032;-72
2022/08/03 09:34:49;;;;;;;5.60;2.65;;;;;;;;;;5002914;28;20058;-72
2022/08/03 09:37:19;;;;;;;3.90;2.90;;;;;;;;;;5008061;28;20543;-73
2022/08/03 09:39:46;;;;;;;3.65;2.92;;;;;;;;;;5007668;28;20056;-72
2022/08/03 09:42:14;;;;;;;4.50;2.40;;;;;;;;;;5008785;28;20292;-73
2022/08/03 09:44:41;;;;;;;4.40;2.45;;;;;;;;;;5010011;28;20022;-73
2022/08/03 09:47:11;;;;;;;3.55;2.78;;;;;;;;;;5010422;28;20525;-73
2022/08/03 09:49:40;;;;;;;2.92;2.63;;;;;;;;;;5003229;28;20577;-72
2022/08/03 09:52:32;;;;;;;3.28;2.70;;;;;;;;;;5009087;28;20022;-73
2022/08/03 09:55:00;;;;;;;4.28;2.70;;;;;;;;;;5006504;28;20045;-73
2022/08/03 09:57:26;;;;;;;3.63;2.70;;;;;;;;;;5006618;28;20026;-72
2022/08/03 10:00:04;;;;;;;2.65;2.42;;;;;;;;;;5010917;28;20121;-72
2022/08/03 10:02:31;;;;;;;4.70;3.15;;;;;;;;;;5009194;28;20053;-73
2022/08/03 10:04:57;;;;;;;2.70;2.50;;;;;;;;;;5011162;28;20108;-72
2022/08/03 10:07:24;;;;;;;3.95;2.75;;;;;;;;;;5007037;28;20092;-72
2022/08/03 10:10:09;;;;;;;5.05;2.88;;;;;;;;;;5011810;28;20357;-71
2022/08/03 10:12:36;;;;;;;5.28;2.97;;;;;;;;;;5010986;28;20026;-72
2022/08/03 10:15:03;;;;;;;3.22;2.53;;;;;;;;;;5008532;28;20529;-72
2022/08/03 10:17:29;;;;;;;5.40;2.97;;;;;;;;;;5001164;28;20025;-72
2022/08/03 10:19:56;;;;;;;3.78;2.70;;;;;;;;;;5006094;28;20058;-72
2022/08/03 10:22:23;;;;;;;4.07;2.80;;;;;;;;;;5011064;28;20115;-71
2022/08/03 10:24:53;;;;;;;3.30;2.55;;;;;;;;;;5007109;28;20045;-71
2022/08/03 10:27:19;;;;;;;2.80;2.60;;;;;;;;;;5000995;28;20038;-71
2022/08/03 10:29:49;;;;;;;3.10;2.70;;;;;;;;;;5004279;28;20022;-71
2022/08/03 10:32:18;;;;;;;2.70;2.50;;;;;;;;;;5005776;28;20034;-71
2022/08/03 10:34:44;;;;;;;3.15;2.70;;;;;;;;;;5002973;28;20497;-71
2022/08/03 10:37:11;;;;;;;2.88;2.67;;;;;;;;;;5006499;28;20029;-71
2022/08/03 10:39:38;;;;;;;3.08;2.78;;;;;;;;;;5002615;28;20466;-71
2022/08/03 10:42:05;;;;;;;3.13;2.67;;;;;;;;;;5006268;28;20053;-72
2022/08/03 10:44:37;;;;;;;3.75;3.20;;;;;;;;;;5001902;28;20021;-71
2022/08/03 10:47:04;;;;;;;3.42;3.10;;;;;;;;;;5006619;28;20034;-71
2022/08/03 10:49:30;;;;;;;3.05;2.75;;;;;;;;;;4998465;28;20029;-71
2022/08/03 10:51:57;;;;;;;3.13;2.55;;;;;;;;;;5004524;28;20029;-72
2022/08/03 10:54:35;;;;;;;3.17;2.88;;;;;;;;;;5004113;28;20234;-71
2022/08/03 10:59:46;;;;;;;5.22;3.42;;;;;;;;;;5004021;28;20044;-71
2022/08/03 11:02:13;;;;;;;3.67;3.00;;;;;;;;;;5008505;28;20108;-71
2022/08/03 11:04:39;;;;;;;4.03;2.67;;;;;;;;;;5006052;28;20526;-71
2022/08/03 11:07:24;;;;;;;4.55;2.70;;;;;;;;;;5003988;28;20025;-71
2022/08/03 11:09:52;;;;;;;4.13;2.97;;;;;;;;;;5001964;28;20029;-71
2022/08/03 11:12:31;;;;;;;3.15;2.85;;;;;;;;;;5003366;28;20018;-71
2022/08/03 11:15:01;;;;;;;3.85;2.70;;;;;;;;;;5000256;28;20018;-70
2022/08/03 11:17:27;;;;;;;3.10;2.80;;;;;;;;;;5003983;28;20025;-70
2022/08/03 11:19:53;;;;;;;3.30;2.70;;;;;;;;;;5004650;28;20017;-70
2022/08/03 11:22:20;;;;;;;4.43;3.22;;;;;;;;;;5016702;28;20026;-71
2022/08/03 11:24:50;;;;;;;4.85;2.90;;;;;;;;;;5012469;28;20025;-71
2022/08/03 11:27:22;;;;;;;4.15;3.10;;;;;;;;;;5016969;28;20045;-72
2022/08/03 11:30:06;;;;;;;4.65;2.97;;;;;;;;;;5013423;28;20026;-72
2022/08/03 11:32:46;;;;;;;3.35;2.95;;;;;;;;;;5006293;28;20108;-71
2022/08/03 11:35:12;;;;;;;3.50;2.60;;;;;;;;;;5009684;28;20040;-72
2022/08/03 11:37:54;;;;;;;4.70;3.15;;;;;;;;;;5005871;28;20077;-72
2022/08/03 11:40:38;;;;;;;3.13;2.78;;;;;;;;;;5008172;28;20614;-71
2022/08/03 11:43:06;;;;;;;4.07;2.83;;;;;;;;;;5009312;28;20026;-72
2022/08/03 11:45:32;;;;;;;3.20;2.70;;;;;;;;;;5007615;28;20018;-71
2022/08/03 11:47:59;;;;;;;3.22;2.60;;;;;;;;;;5011153;28;20022;-71
2022/08/03 11:50:25;;;;;;;2.88;2.50;;;;;;;;;;5007160;28;20022;-71
2022/08/03 11:52:52;;;;;;;4.82;2.70;;;;;;;;;;5000873;28;20018;-72
2022/08/03 11:55:20;;;;;;;4.07;2.30;;;;;;;;;;5008437;28;20134;-72
2022/08/03 11:57:47;;;;;;;3.40;2.25;;;;;;;;;;5007975;28;20196;-74
2022/08/03 12:00:23;;;;;;;2.55;2.35;;;;;;;;;;5005723;28;20022;-72
2022/08/03 12:02:56;;;;;;;2.85;2.55;;;;;;;;;;5005750;28;20044;-72
2022/08/03 12:05:32;;;;;;;3.75;2.55;;;;;;;;;;5012595;28;20022;-72
2022/08/03 12:07:58;;;;;;;3.22;2.50;;;;;;;;;;5006441;28;20430;-72
2022/08/03 12:10:25;;;;;;;4.47;2.72;;;;;;;;;;5008722;28;20026;-72
2022/08/03 12:12:58;;;;;;;2.75;2.45;;;;;;;;;;5010311;28;20050;-72
2022/08/03 12:15:25;;;;;;;4.35;2.78;;;;;;;;;;5009202;28;20029;-72
2022/08/03 12:17:51;;;;;;;2.72;2.20;;;;;;;;;;5005119;28;20470;-72
2022/08/03 12:20:21;;;;;;;2.50;2.30;;;;;;;;;;5008676;28;20105;-73
2022/08/03 12:22:48;;;;;;;2.63;2.25;;;;;;;;;;5012841;28;20057;-72
2022/08/03 12:25:24;;;;;;;4.05;2.70;;;;;;;;;;5015883;28;20018;-72
2022/08/03 12:27:52;;;;;;;2.60;2.40;;;;;;;;;;5014390;28;20052;-72
2022/08/03 12:30:18;;;;;;;2.80;2.10;;;;;;;;;;5010417;28;20496;-73
2022/08/03 12:32:45;;;;;;;4.00;2.08;;;;;;;;;;5008816;28;20554;-72
2022/08/03 12:35:22;;;;;;;3.03;2.33;;;;;;;;;;5010946;28;20021;-72
2022/08/03 12:37:48;;;;;;;2.83;1.98;;;;;;;;;;5005132;28;20038;-72
2022/08/03 12:40:15;;;;;;;2.40;2.20;;;;;;;;;;5006524;28;20022;-72
2022/08/03 12:42:41;;;;;;;2.30;2.10;;;;;;;;;;5000778;28;20160;-71
2022/08/03 12:45:22;;;;;;;3.75;2.30;;;;;;;;;;5002381;28;20083;-72
2022/08/03 12:47:51;;;;;;;2.30;2.10;;;;;;;;;;4996731;28;20037;-72
2022/08/03 12:50:33;;;;;;;2.88;2.13;;;;;;;;;;5009289;28;20099;-72
2022/08/03 12:53:01;;;;;;;2.92;2.22;;;;;;;;;;5001454;28;20092;-72
2022/08/03 12:55:32;;;;;;;5.43;2.35;;;;;;;;;;5002807;28;20156;-72
2022/08/03 12:58:09;;;;;;;4.85;2.22;;;;;;;;;;5007574;28;20026;-72
2022/08/03 13:00:36;;;;;;;4.10;2.55;;;;;;;;;;5008443;28;20374;-72
2022/08/03 13:03:04;;;;;;;3.13;2.08;;;;;;;;;;5009668;28;20033;-72
2022/08/03 13:05:30;;;;;;;4.90;2.22;;;;;;;;;;5010091;28;20022;-72
2022/08/03 13:07:57;;;;;;;4.63;2.22;;;;;;;;;;5007248;28;20101;-72
2022/08/03 13:10:32;;;;;;;2.60;2.40;;;;;;;;;;5012134;28;20021;-72
2022/08/03 13:12:59;;;;;;;3.70;2.65;;;;;;;;;;5008748;28;20033;-72
2022/08/03 13:15:28;;;;;;;3.38;2.30;;;;;;;;;;5008347;28;20030;-72
2022/08/03 13:17:58;;;;;;;2.85;2.28;;;;;;;;;;5010333;28;20570;-72
2022/08/03 13:20:24;;;;;;;3.55;2.13;;;;;;;;;;5008180;28;20104;-72
2022/08/03 13:22:51;;;;;;;2.20;2.00;;;;;;;;;;5008348;28;20045;-73
2022/08/03 13:25:17;;;;;;;2.97;2.50;;;;;;;;;;5012213;28;20025;-73
2022/08/03 13:27:43;;;;;;;2.35;2.10;;;;;;;;;;5005321;28;20060;-73
2022/08/03 13:30:10;;;;;;;2.30;2.10;;;;;;;;;;5010627;28;20474;-73
2022/08/03 13:32:37;;;;;;;2.30;2.10;;;;;;;;;;5010738;28;20173;-73
2022/08/03 13:35:04;;;;;;;2.78;2.17;;;;;;;;;;5014712;28;20021;-73
2022/08/03 13:37:33;;;;;;;3.08;2.60;;;;;;;;;;5012224;28;20029;-72
2022/08/03 13:40:00;;;;;;;2.00;1.88;;;;;;;;;;5011144;28;20103;-72
2022/08/03 13:42:29;;;;;;;3.28;2.40;;;;;;;;;;5004872;28;20022;-73
2022/08/03 13:44:55;;;;;;;4.00;2.05;;;;;;;;;;5009913;28;20368;-73
2022/08/03 13:47:22;;;;;;;6.63;2.08;;;;;;;;;;4997292;28;20025;-72
2022/08/03 13:49:50;;;;;;;2.90;2.00;;;;;;;;;;5006291;28;20037;-72
2022/08/03 13:52:16;;;;;;;2.45;2.25;;;;;;;;;;5004304;28;20081;-72
2022/08/03 13:54:42;;;;;;;2.25;2.05;;;;;;;;;;5005173;28;20033;-72
2022/08/03 13:57:10;;;;;;;3.58;2.05;;;;;;;;;;5003126;28;20474;-72
2022/08/03 13:59:37;;;;;;;3.38;2.17;;;;;;;;;;5004021;28;20030;-73
2022/08/03 14:02:03;;;;;;;3.47;2.28;;;;;;;;;;5003675;28;20103;-72
2022/08/03 14:04:30;;;;;;;3.17;2.55;;;;;;;;;;5003775;28;20535;-73
2022/08/03 14:06:56;;;;;;;3.53;2.45;;;;;;;;;;5002703;28;20047;-72
2022/08/03 14:09:22;;;;;;;2.72;2.22;;;;;;;;;;4997942;28;20112;-73
2022/08/03 14:11:49;;;;;;;4.82;2.28;;;;;;;;;;5006061;28;20028;-73
2022/08/03 14:14:15;;;;;;;3.53;2.35;;;;;;;;;;5000829;28;20642;-73
2022/08/03 14:16:42;;;;;;;2.08;1.88;;;;;;;;;;5002535;28;20037;-72
2022/08/03 14:19:08;;;;;;;7.65;2.38;;;;;;;;;;5005540;28;20025;-72
2022/08/03 14:21:34;;;;;;;3.45;2.17;;;;;;;;;;5003437;28;20026;-72
2022/08/03 14:24:00;;;;;;;2.22;2.03;;;;;;;;;;5001783;28;20094;-72
2022/08/03 14:26:27;;;;;;;5.03;2.20;;;;;;;;;;5003935;28;20022;-72
2022/08/03 14:28:53;;;;;;;7.82;2.55;;;;;;;;;;5003194;28;20042;-72
2022/08/03 14:31:19;;;;;;;4.65;2.40;;;;;;;;;;5002053;28;20109;-71
2022/08/03 14:33:45;;;;;;;6.75;2.47;;;;;;;;;;5003958;28;20758;-71
2022/08/03 14:36:11;;;;;;;2.72;2.20;;;;;;;;;;5003382;28;20305;-72
2022/08/03 14:38:38;;;;;;;3.47;2.00;;;;;;;;;;5004448;28;20038;-71
2022/08/03 14:41:04;;;;;;;3.55;2.20;;;;;;;;;;5005953;28;20057;-72
2022/08/03 14:43:30;;;;;;;2.35;2.15;;;;;;;;;;5003786;28;20065;-72
2022/08/03 14:45:56;;;;;;;3.15;2.03;;;;;;;;;;5008244;28;20022;-72
2022/08/03 14:48:26;;;;;;;2.40;2.17;;;;;;;;;;4995523;28;20031;-72
2022/08/03 14:50:53;;;;;;;6.10;2.33;;;;;;;;;;4998203;28;20036;-72
2022/08/03 14:53:20;;;;;;;2.30;2.10;;;;;;;;;;4996029;28;20026;-72
2022/08/03 14:55:48;;;;;;;3.33;2.05;;;;;;;;;;4993447;28;20032;-72